Fairfield, Alabama
Current Conditions -  °F | °C
As of 9:53 AM on Thursday 18 Dec 2014 (Local Time) from KBHM Reporting Station
Overcast Overcast  
Wind Chill:   Ceiling: 5500
Heat Index:   Visibility: 10mi
Dew Point: -1°   Wind: 5mph
Humidity: 58%   Direction: NA
Pressure: 30.23"   Gusts: NA
Location:  33.49°N, 86.91°W
Report Text: KBHM 181553Z VRB04KT 10SM BKN055 OVC100 07/M01 A3023 RMK AO2 SLP237 T00721006
Loading
Personal Weather Stations






























Interactive Weather Map New forecast layout! Learn more

10-Day Weather Forecast

Advertisements
Track Severe Weather on mobile